This demonstration page uses our WeatherBlox Daily Observations layout. Learn more.

39.92423, -83.80882

Hourly Observations for September 18, 2017

Temp ( °F °C ) Dew Point ( °F °C ) Humidity (%) Winds ( mph kmh ) Pressure ( in mb ) Visibility ( mi km ) Precip ( " mm )
12:56 am 00:56 Mostly Cloudy 61 16.1 59 15 93 93 SE 3 6 30.06 1018 10 16.09344 0 0
1:56 am 01:56 Mostly Cloudy 66 18.9 60 15.6 81 81 S 6 9 30.06 1018 10 16.09344 0 0
2:56 am 02:56 Clear 61 16.1 59 15 93 93 SE 3 6 30.06 1018 10 16.09344 0 0
3:56 am 03:56 Mostly Cloudy 62 16.7 60 15.6 93 93 Calm 30.06 1018 10 16.09344 0 0
4:56 am 04:56 Mostly Cloudy 62 16.7 60 15.6 93 93 Calm 30.06 1018 10 16.09344 0 0
5:56 am 05:56 Clear 60 15.6 58 14.4 93 93 Calm 30.06 1018 10 16.09344 0 0
6:56 am 06:56 Mostly Cloudy 59 15 58 14.4 96 96 Calm 30.06 1018 10 16.09344 0 0
7:56 am 07:56 Sunny 60 15.6 59 15 96 96 E 3 6 30.06 1018 10 16.09344 0 0
8:56 am 08:56 Mostly Sunny 67 19.4 62 16.7 84 84 Calm 30.09 1019 10 16.09344 0 0
9:56 am 09:56 Sunny 73 22.8 63 17.2 71 71 SSE 3 6 30.09 1019 10 16.09344 0 0
10:56 am 10:56 Cloudy 74 23.3 63 17.2 69 69 SSW 3 6 30.09 1019 10 16.09344 0 0
11:56 am 11:56 Cloudy 73 22.8 65 18.3 76 76 SW 3 6 30.09 1019 10 16.09344 0.001 0.001
12:56 pm 12:56 Cloudy 77 25 67 19.4 71 71 SSW 6 9 30.06 1018 10 16.09344 0 0
1:56 pm 13:56 Cloudy 78 25.6 65 18.3 64 64 SSW 6 9 30.06 1018 10 16.09344 0 0
2:56 pm 14:56 Cloudy 77 25 66 18.9 69 69 SSW 5 7 30.03 1017 10 16.09344 0 0
3:56 pm 15:56 Cloudy 79 26.1 65 18.3 62 62 SSW 6 9 30.03 1017 10 16.09344 0 0
4:56 pm 16:56 Sunny 80 26.7 65 18.3 60 60 S 6 9 30 1016 10 16.09344 0 0
5:56 pm 17:56 Partly Cloudy 77 25 66 18.9 69 69 Calm 30 1016 10 16.09344 0 0
6:23 pm 18:23 Cloudy 73 23 66 19 78 78 W 9 15 30 1016 10 16.09344 0 0
6:56 pm 18:56 Cloudy with Heavy Rain 69 20.6 67 19.4 93 93 N 5 7 30.03 1017 5 8.04672 0.05 1.27
7:56 pm 19:56 Cloudy 69 20.6 67 19.4 93 93 Calm 30 1016 10 16.09344 0.06 1.524
8:56 pm 20:56 Mostly Cloudy with Mist and Fog 68 20 66 18.9 93 93 E 5 7 30 1016 5 8.04672 0.001 0.001
9:56 pm 21:56 Mostly Cloudy 69 20.6 67 19.4 93 93 SE 8 13 30 1016 9 14.484096 0 0
10:56 pm 22:56 Cloudy 68 20 66 18.9 93 93 SSE 6 9 30 1016 9 14.484096 0 0
11:56 pm 23:56 Clear 69 20.6 65 18.3 87 87 SSE 7 11 30 1016 10 16.09344 0 0

Powered by AerisWeather